createdAt,value
2023-03-18T00:03:45.704Z,12.96
2023-03-18T00:08:51.272Z,12.92
2023-03-18T00:13:55.478Z,12.93
2023-03-18T00:18:59.184Z,12.89
2023-03-18T00:24:04.887Z,12.92
2023-03-18T00:29:08.852Z,12.86
2023-03-18T00:34:12.939Z,12.89
2023-03-18T00:39:26.102Z,12.85
2023-03-18T00:44:31.973Z,12.83
2023-03-18T00:49:35.648Z,12.77
2023-03-18T00:54:40.813Z,12.75
2023-03-18T00:59:44.835Z,12.68
2023-03-18T01:04:48.806Z,12.73
2023-03-18T01:09:55.937Z,12.68
2023-03-18T01:15:01.067Z,12.60
2023-03-18T01:20:06.118Z,12.58
2023-03-18T01:25:13.030Z,12.53
2023-03-18T01:30:17.855Z,12.50
2023-03-18T01:35:21.993Z,12.49
2023-03-18T01:40:28.571Z,12.53
2023-03-18T01:45:35.962Z,12.45
2023-03-18T01:50:40.226Z,12.46
2023-03-18T01:55:48.221Z,12.51
2023-03-18T02:01:00.127Z,12.48
2023-03-18T02:06:05.256Z,12.49
2023-03-18T02:11:11.781Z,12.49
2023-03-18T02:16:19.897Z,12.46
2023-03-18T02:21:35.004Z,12.43
2023-03-18T02:26:50.094Z,12.44
2023-03-18T02:31:58.284Z,12.31
2023-03-18T02:37:02.072Z,12.24
2023-03-18T02:42:06.271Z,12.22
2023-03-18T02:47:17.346Z,12.18
2023-03-18T02:52:21.409Z,12.18
2023-03-18T02:57:25.156Z,12.14
2023-03-18T03:02:30.431Z,12.00
2023-03-18T03:07:34.268Z,12.01
2023-03-18T03:12:39.809Z,11.90
2023-03-18T03:17:48.403Z,11.93
2023-03-18T03:22:54.287Z,11.86
2023-03-18T03:27:58.360Z,11.82
2023-03-18T03:33:03.488Z,11.71
2023-03-18T03:38:07.248Z,11.67
2023-03-18T03:43:13.933Z,11.71
2023-03-18T03:48:19.768Z,11.72
2023-03-18T03:53:24.532Z,11.75
2023-03-18T03:58:29.045Z,11.70
2023-03-18T04:03:34.927Z,11.66
2023-03-18T04:08:41.950Z,11.73
2023-03-18T04:13:45.864Z,11.72
2023-03-18T04:18:50.985Z,11.65
2023-03-18T04:23:59.875Z,11.66
2023-03-18T04:29:03.860Z,11.61
2023-03-18T04:34:09.720Z,11.57
2023-03-18T04:39:13.878Z,11.39
2023-03-18T04:44:19.397Z,11.36
2023-03-18T04:49:25.348Z,11.36
2023-03-18T04:54:30.061Z,11.23
2023-03-18T04:59:35.254Z,11.29
2023-03-18T05:04:41.247Z,11.29
2023-03-18T05:09:45.364Z,11.19
2023-03-18T05:14:49.600Z,11.24
2023-03-18T05:19:54.833Z,11.23
2023-03-18T05:24:59.447Z,11.28
2023-03-18T05:30:04.594Z,11.22
2023-03-18T05:35:11.761Z,11.16
2023-03-18T05:40:19.494Z,11.16
2023-03-18T05:45:25.439Z,11.05
2023-03-18T05:50:32.746Z,10.95
2023-03-18T05:55:37.692Z,10.90
2023-03-18T06:00:41.584Z,10.81
2023-03-18T06:05:49.210Z,10.74
2023-03-18T06:10:54.138Z,10.69
2023-03-18T06:15:59.012Z,10.69
2023-03-18T06:21:06.465Z,10.66
2023-03-18T06:26:11.075Z,10.61
2023-03-18T06:31:15.339Z,10.58
2023-03-18T06:36:22.591Z,10.52
2023-03-18T06:41:28.164Z,10.51
2023-03-18T06:46:33.295Z,10.44
2023-03-18T06:51:39.570Z,10.55
2023-03-18T06:56:46.365Z,10.61
2023-03-18T07:01:50.857Z,10.64
2023-03-18T07:06:57.706Z,10.68
2023-03-18T07:12:02.774Z,10.63
2023-03-18T07:17:07.477Z,10.75
2023-03-18T07:22:12.719Z,10.81
2023-03-18T07:27:16.787Z,10.86
2023-03-18T07:32:20.970Z,10.99
2023-03-18T07:37:26.172Z,10.94
2023-03-18T07:42:30.026Z,11.05
2023-03-18T07:47:33.827Z,11.27
2023-03-18T07:52:39.612Z,11.43
2023-03-18T07:57:43.689Z,11.56
2023-03-18T08:02:47.930Z,11.73
2023-03-18T08:07:53.665Z,11.83
2023-03-18T08:12:58.265Z,12.07
2023-03-18T08:18:02.531Z,12.32
2023-03-18T08:23:08.168Z,12.55
2023-03-18T08:28:12.021Z,12.68
2023-03-18T08:33:15.855Z,12.85
2023-03-18T08:38:21.224Z,12.93
2023-03-18T08:43:25.776Z,13.11
2023-03-18T08:48:30.860Z,13.27
2023-03-18T08:53:36.698Z,13.35
2023-03-18T08:58:40.747Z,13.48
2023-03-18T09:03:45.040Z,13.70
2023-03-18T09:08:50.419Z,13.81
2023-03-18T09:13:54.687Z,13.85
2023-03-18T09:18:58.589Z,13.87
2023-03-18T09:24:07.017Z,14.07
2023-03-18T09:29:11.446Z,14.57
2023-03-18T09:34:15.903Z,14.61
2023-03-18T09:39:22.239Z,14.76
2023-03-18T09:44:31.901Z,14.89
2023-03-18T09:49:50.037Z,14.71
2023-03-18T09:55:02.628Z,15.24
2023-03-18T10:00:17.448Z,15.13
2023-03-18T10:05:26.982Z,15.55
2023-03-18T10:10:38.076Z,15.50
2023-03-18T10:15:45.621Z,15.59
2023-03-18T10:20:59.658Z,15.86
2023-03-18T10:26:07.195Z,16.13
2023-03-18T10:31:21.101Z,16.19
2023-03-18T10:36:31.781Z,16.05
2023-03-18T10:41:39.016Z,16.05
2023-03-18T10:46:45.072Z,15.98
2023-03-18T10:51:54.646Z,16.09
2023-03-18T10:56:59.845Z,15.79
2023-03-18T11:02:06.398Z,15.77
2023-03-18T11:07:16.451Z,15.72
2023-03-18T11:12:25.658Z,15.53
2023-03-18T11:17:33.589Z,15.53
2023-03-18T11:22:38.591Z,15.32
2023-03-18T11:27:46.284Z,15.30
2023-03-18T11:32:56.513Z,15.28
2023-03-18T11:38:04.718Z,15.28
2023-03-18T11:43:18.882Z,15.33
2023-03-18T11:48:32.299Z,15.22
2023-03-18T11:53:52.492Z,15.08
2023-03-18T11:59:10.075Z,15.00
2023-03-18T12:04:34.107Z,15.02
2023-03-18T12:09:43.828Z,14.81
2023-03-18T12:14:58.840Z,14.69
2023-03-18T12:20:34.504Z,14.58
2023-03-18T12:25:53.250Z,14.54
2023-03-18T12:31:39.394Z,14.53
2023-03-18T12:36:57.122Z,14.46
2023-03-18T12:42:04.319Z,14.63
2023-03-18T12:47:16.479Z,14.59
2023-03-18T12:52:31.258Z,14.52
2023-03-18T12:57:42.847Z,14.51
2023-03-18T13:02:55.454Z,14.53
2023-03-18T13:08:23.519Z,14.66
2023-03-18T13:13:29.360Z,15.25
2023-03-18T13:18:39.710Z,15.55
2023-03-18T13:24:06.911Z,15.93
2023-03-18T13:29:20.800Z,15.89
2023-03-18T13:34:46.317Z,16.22
2023-03-18T13:40:19.189Z,17.00
2023-03-18T13:45:28.647Z,17.54
2023-03-18T13:50:35.516Z,18.39
2023-03-18T13:55:49.812Z,19.52
2023-03-18T14:01:15.650Z,19.71
2023-03-18T14:06:24.028Z,21.17
2023-03-18T14:11:46.892Z,21.92
2023-03-18T14:16:53.791Z,22.21
2023-03-18T14:22:08.614Z,23.39
2023-03-18T14:27:20.403Z,23.82
2023-03-18T14:32:37.427Z,24.06
2023-03-18T14:38:00.903Z,23.43
2023-03-18T14:43:12.103Z,24.00
2023-03-18T14:48:20.671Z,22.51
2023-03-18T14:53:30.504Z,22.19
2023-03-18T14:58:36.339Z,23.00
2023-03-18T15:03:44.771Z,23.70
2023-03-18T15:08:51.474Z,23.33
2023-03-18T15:14:00.000Z,24.01
2023-03-18T15:19:05.405Z,24.36
2023-03-18T15:24:09.695Z,24.30
2023-03-18T15:29:27.988Z,24.21
2023-03-18T15:34:34.243Z,23.18
2023-03-18T15:39:39.894Z,22.28
2023-03-18T15:44:46.591Z,21.45
2023-03-18T15:49:54.451Z,21.42
2023-03-18T15:54:58.676Z,21.74
2023-03-18T16:00:08.204Z,21.01
2023-03-18T16:05:19.361Z,20.90
2023-03-18T16:10:26.582Z,19.90
2023-03-18T16:15:32.895Z,19.37
2023-03-18T16:20:36.844Z,18.98
2023-03-18T16:25:41.886Z,18.56
2023-03-18T16:30:47.579Z,18.63
2023-03-18T16:35:57.057Z,18.22
2023-03-18T16:41:01.881Z,18.03
2023-03-18T16:46:07.456Z,17.94
2023-03-18T16:51:11.316Z,17.87
2023-03-18T16:56:17.874Z,17.85
2023-03-18T17:01:24.917Z,17.51
2023-03-18T17:06:28.761Z,17.18
2023-03-18T17:11:32.662Z,17.21
2023-03-18T17:16:38.007Z,17.06
2023-03-18T17:21:41.838Z,17.06
2023-03-18T17:26:47.455Z,17.11
2023-03-18T17:31:52.569Z,16.86
2023-03-18T17:36:56.922Z,16.71
2023-03-18T17:42:01.320Z,16.66
2023-03-18T17:47:06.936Z,16.64
2023-03-18T17:52:12.237Z,16.51
2023-03-18T17:57:17.399Z,16.57
2023-03-18T18:02:22.545Z,16.64
2023-03-18T18:07:26.307Z,16.45
2023-03-18T18:12:30.226Z,16.48
2023-03-18T18:17:35.326Z,16.13
2023-03-18T18:22:39.571Z,16.17
2023-03-18T18:27:43.418Z,16.17
2023-03-18T18:32:48.825Z,15.93
2023-03-18T18:37:53.123Z,15.86
2023-03-18T18:42:57.021Z,15.94
2023-03-18T18:48:02.077Z,15.81
2023-03-18T18:53:15.264Z,15.75
2023-03-18T18:58:22.024Z,15.55
2023-03-18T19:03:31.406Z,14.70
2023-03-18T19:08:36.980Z,14.34
2023-03-18T19:13:41.005Z,13.96
2023-03-18T19:18:46.119Z,13.41
2023-03-18T19:23:50.505Z,12.96
2023-03-18T19:28:59.440Z,12.90
2023-03-18T19:34:15.024Z,12.79
2023-03-18T19:39:20.634Z,12.63
2023-03-18T19:44:26.391Z,12.56
2023-03-18T19:49:35.147Z,12.63
2023-03-18T19:54:48.765Z,12.55
2023-03-18T19:59:56.320Z,12.71
2023-03-18T20:05:03.199Z,12.53
2023-03-18T20:10:08.743Z,12.57
2023-03-18T20:15:16.598Z,12.38
2023-03-18T20:20:24.067Z,12.49
2023-03-18T20:25:34.178Z,12.40
2023-03-18T20:30:40.334Z,12.28
2023-03-18T20:35:47.144Z,12.27
2023-03-18T20:40:51.028Z,12.27
2023-03-18T20:45:56.564Z,12.22
2023-03-18T20:51:02.502Z,12.05
2023-03-18T20:56:06.975Z,12.27
2023-03-18T21:01:13.771Z,12.26
2023-03-18T21:06:19.267Z,12.26
2023-03-18T21:11:27.490Z,12.19
2023-03-18T21:16:32.839Z,12.18
2023-03-18T21:21:39.697Z,12.18
2023-03-18T21:26:54.376Z,12.24
2023-03-18T21:32:07.389Z,12.16
2023-03-18T21:37:16.549Z,12.07
2023-03-18T21:42:24.003Z,12.03
2023-03-18T21:47:28.129Z,12.07
2023-03-18T21:52:34.458Z,11.98
2023-03-18T21:57:38.297Z,11.98
2023-03-18T22:02:41.984Z,11.97
2023-03-18T22:07:47.630Z,11.86
2023-03-18T22:12:51.880Z,11.81
2023-03-18T22:17:55.596Z,11.91
2023-03-18T22:23:00.688Z,11.75
2023-03-18T22:28:05.313Z,11.65
2023-03-18T22:33:16.644Z,11.69
2023-03-18T22:38:23.399Z,11.52
2023-03-18T22:43:31.896Z,11.43
2023-03-18T22:48:36.047Z,11.29
2023-03-18T22:53:42.883Z,11.36
2023-03-18T22:58:46.703Z,11.27
2023-03-18T23:03:50.520Z,11.19
2023-03-18T23:08:55.944Z,11.27
2023-03-18T23:13:59.818Z,11.24
2023-03-18T23:19:03.559Z,11.24
2023-03-18T23:24:10.648Z,11.21
2023-03-18T23:29:14.364Z,11.20
2023-03-18T23:34:18.364Z,11.21
2023-03-18T23:39:23.400Z,11.17
2023-03-18T23:44:27.258Z,11.11
2023-03-18T23:49:32.512Z,11.13
2023-03-18T23:54:39.197Z,11.01
2023-03-18T23:59:42.957Z,11.07
